Time;durP1;ratioP1;P1;durP2;ratioP2;P2;SDS_P1;SDS_P2;PMS_P1;PMS_P2;Temp;Humidity;BMP_temperature;BMP_pressure;BME280_temperature;BME280_humidity;BME280_pressure;Samples;Min_cycle;Max_cycle;Signal;HPM_P1;HPM_P2
2023/10/10 00:01:14;;;;;;;16.97;7.40;;;19.10;99.90;;;;;;5006665;28;20481;-67
2023/10/10 00:03:42;;;;;;;16.50;7.30;;;19.10;99.90;;;;;;5001171;28;20953;-66
2023/10/10 00:06:13;;;;;;;16.73;7.20;;;19.10;99.90;;;;;;4993805;28;20718;-66
2023/10/10 00:08:46;;;;;;;15.03;6.57;;;19.00;99.90;;;;;;4997229;28;20444;-66
2023/10/10 00:11:19;;;;;;;13.20;7.00;;;19.00;99.90;;;;;;4998291;28;20498;-66
2023/10/10 00:13:46;;;;;;;19.53;7.13;;;19.00;99.90;;;;;;5002903;28;20855;-66
2023/10/10 00:16:26;;;;;;;13.07;6.87;;;19.00;99.90;;;;;;4993765;28;20887;-66
2023/10/10 00:18:55;;;;;;;13.90;7.50;;;19.00;99.90;;;;;;4992927;28;20478;-66
2023/10/10 00:21:28;;;;;;;14.77;6.60;;;19.00;99.90;;;;;;4995087;28;20432;-66
2023/10/10 00:23:55;;;;;;;16.37;6.80;;;18.90;99.90;;;;;;4994467;28;21009;-66
2023/10/10 00:26:21;;;;;;;21.17;6.57;;;18.80;99.90;;;;;;4994430;28;20463;-66
2023/10/10 00:28:54;;;;;;;11.20;6.70;;;18.70;99.90;;;;;;4992892;28;20438;-66
2023/10/10 00:31:24;;;;;;;20.33;6.93;;;18.70;99.90;;;;;;4998405;28;20486;-66
2023/10/10 00:33:51;;;;;;;17.60;6.97;;;18.60;99.90;;;;;;4994895;28;20521;-66
2023/10/10 00:36:22;;;;;;;14.20;7.10;;;18.60;99.90;;;;;;4988666;28;20433;-66
2023/10/10 00:38:50;;;;;;;19.30;8.10;;;18.60;99.90;;;;;;4995886;28;20427;-66
2023/10/10 00:41:16;;;;;;;19.40;7.37;;;18.50;99.90;;;;;;4994381;28;20432;-66
2023/10/10 00:43:42;;;;;;;17.80;7.40;;;18.50;99.90;;;;;;4993915;28;20958;-66
2023/10/10 00:46:11;;;;;;;17.63;7.40;;;18.40;99.90;;;;;;4995203;28;20186;-66
2023/10/10 00:48:38;;;;;;;16.67;7.20;;;18.40;99.90;;;;;;4990514;28;20995;-67
2023/10/10 00:51:10;;;;;;;22.80;7.60;;;18.40;99.90;;;;;;4994687;28;20441;-66
2023/10/10 00:53:39;;;;;;;17.20;6.60;;;18.40;99.90;;;;;;4991742;28;20459;-66
2023/10/10 00:56:08;;;;;;;12.27;6.33;;;18.40;99.90;;;;;;4995848;28;20423;-66
2023/10/10 00:58:38;;;;;;;18.50;6.97;;;18.40;99.90;;;;;;4999265;28;20427;-67
2023/10/10 01:01:13;;;;;;;15.40;6.60;;;18.30;99.90;;;;;;5002933;28;21505;-67
2023/10/10 01:03:41;;;;;;;23.20;7.70;;;18.20;99.90;;;;;;4997661;28;20456;-66
2023/10/10 01:06:24;;;;;;;10.90;6.87;;;18.20;99.90;;;;;;4999425;28;20831;-66
2023/10/10 01:08:59;;;;;;;14.80;7.13;;;18.20;99.90;;;;;;5003260;28;20510;-67
2023/10/10 01:11:25;;;;;;;15.50;8.70;;;18.30;99.90;;;;;;5002810;28;20930;-66
2023/10/10 01:13:56;;;;;;;13.90;6.20;;;18.20;99.90;;;;;;5011700;28;20456;-67
2023/10/10 01:16:27;;;;;;;23.83;7.10;;;18.30;99.90;;;;;;5003319;28;20419;-66
2023/10/10 01:18:57;;;;;;;12.97;7.10;;;18.10;99.90;;;;;;5008686;28;21201;-66
2023/10/10 01:21:33;;;;;;;12.37;7.03;;;18.00;99.90;;;;;;5004849;28;20434;-66
2023/10/10 01:24:22;;;;;;;15.30;6.07;;;18.00;99.90;;;;;;5005372;28;21056;-67
2023/10/10 01:26:50;;;;;;;17.57;7.30;;;18.00;99.90;;;;;;5005870;28;20428;-66
2023/10/10 01:29:25;;;;;;;18.27;7.60;;;17.90;99.90;;;;;;5004251;28;20439;-66
2023/10/10 01:31:58;;;;;;;16.43;7.67;;;18.00;99.90;;;;;;5002870;28;20490;-66
2023/10/10 01:34:31;;;;;;;17.20;6.87;;;18.00;99.90;;;;;;5005736;28;20427;-67
2023/10/10 01:36:59;;;;;;;17.67;6.70;;;17.90;99.90;;;;;;5007517;28;20750;-68
2023/10/10 01:39:35;;;;;;;16.97;7.57;;;17.90;99.90;;;;;;5007206;28;20489;-66
2023/10/10 01:42:01;;;;;;;13.80;6.13;;;17.90;99.90;;;;;;5005817;28;20968;-67
2023/10/10 01:44:27;;;;;;;12.57;6.20;;;17.90;99.90;;;;;;5001682;28;20506;-66
2023/10/10 01:46:53;;;;;;;19.60;5.87;;;17.80;99.90;;;;;;5000996;28;20523;-67
2023/10/10 01:49:20;;;;;;;16.43;5.77;;;17.70;99.90;;;;;;5006717;28;20435;-66
2023/10/10 01:51:48;;;;;;;16.23;7.20;;;17.80;99.90;;;;;;4996417;28;20267;-66
2023/10/10 01:54:18;;;;;;;12.50;6.33;;;17.70;99.90;;;;;;5003441;28;20867;-67
2023/10/10 01:56:44;;;;;;;14.67;5.50;;;17.70;99.90;;;;;;5021324;28;20976;-66
2023/10/10 01:59:13;;;;;;;12.83;6.20;;;17.60;99.90;;;;;;5009498;28;20415;-67
2023/10/10 02:01:41;;;;;;;19.93;7.97;;;17.60;99.90;;;;;;5002034;28;20731;-67
2023/10/10 02:04:07;;;;;;;21.57;6.60;;;17.70;99.90;;;;;;5003160;28;20421;-67
2023/10/10 02:06:35;;;;;;;15.50;7.20;;;17.70;99.90;;;;;;5005551;28;20428;-67
2023/10/10 02:09:11;;;;;;;14.43;6.37;;;17.70;99.90;;;;;;5000106;28;20452;-66
2023/10/10 02:11:49;;;;;;;16.47;6.60;;;17.60;99.90;;;;;;4998696;28;20455;-67
2023/10/10 02:14:25;;;;;;;12.57;5.83;;;17.70;99.90;;;;;;5002258;28;20426;-66
2023/10/10 02:16:53;;;;;;;15.53;6.30;;;17.70;99.90;;;;;;5004968;28;20415;-67
2023/10/10 02:19:27;;;;;;;12.30;6.57;;;17.80;99.90;;;;;;5004088;28;20436;-66
2023/10/10 02:22:19;;;;;;;13.77;5.90;;;17.80;99.90;;;;;;5003962;28;20435;-66
2023/10/10 02:24:49;;;;;;;13.53;7.00;;;17.70;99.90;;;;;;5006367;28;20851;-66
2023/10/10 02:27:28;;;;;;;12.30;6.17;;;17.70;99.90;;;;;;5003374;28;20429;-66
2023/10/10 02:29:54;;;;;;;14.17;6.60;;;17.70;99.90;;;;;;5003225;28;20425;-66
2023/10/10 02:32:20;;;;;;;15.30;7.30;;;17.70;99.90;;;;;;5006155;28;20490;-67
2023/10/10 02:35:25;;;;;;;14.60;6.73;;;17.70;99.90;;;;;;5007477;28;20174;-66
2023/10/10 02:37:47;;;;;;;18.57;6.37;;;17.70;99.90;;;;;;5005482;28;21006;-67
2023/10/10 02:40:15;;;;;;;12.50;6.40;;;17.80;99.90;;;;;;5007125;28;20511;-67
2023/10/10 02:43:09;;;;;;;19.73;7.20;;;17.80;99.90;;;;;;5008143;28;20217;-67
2023/10/10 02:45:28;;;;;;;15.53;7.47;;;17.70;99.90;;;;;;5002801;28;20420;-67
2023/10/10 02:47:54;;;;;;;17.50;8.60;;;17.70;99.90;;;;;;5004242;28;20532;-67
2023/10/10 02:53:07;;;;;;;20.93;6.00;;;17.80;99.90;;;;;;5002173;28;20839;-66
2023/10/10 02:55:41;;;;;;;17.03;7.03;;;17.70;99.90;;;;;;5003981;28;20801;-66
2023/10/10 02:58:21;;;;;;;12.43;7.00;;;17.60;99.90;;;;;;5002722;28;20545;-67
2023/10/10 03:00:52;;;;;;;12.20;6.53;;;17.60;99.90;;;;;;4998750;28;20408;-66
2023/10/10 03:03:20;;;;;;;15.70;6.93;;;17.60;99.90;;;;;;5005144;28;20452;-66
2023/10/10 03:05:58;;;;;;;18.00;7.33;;;17.40;99.90;;;;;;4998897;28;21268;-67
2023/10/10 03:11:01;;;;;;;15.80;6.77;;;17.30;99.90;;;;;;5005482;28;20412;-67
2023/10/10 03:13:30;;;;;;;11.47;6.90;;;17.30;99.90;;;;;;5001089;28;20452;-67
2023/10/10 03:16:12;;;;;;;18.40;6.33;;;17.30;99.90;;;;;;5004845;28;20415;-67
2023/10/10 03:18:43;;;;;;;22.57;7.40;;;17.30;99.90;;;;;;5003444;28;20884;-67
2023/10/10 03:23:52;;;;;;;14.37;7.27;;;17.30;99.90;;;;;;5003942;28;20525;-66
2023/10/10 03:26:19;;;;;;;15.50;7.30;;;17.40;99.90;;;;;;5006530;28;20430;-67
2023/10/10 03:28:47;;;;;;;12.70;6.83;;;17.40;99.90;;;;;;4998550;28;20426;-66
2023/10/10 05:25:09;;;;;;;14.00;7.67;;;16.20;99.90;;;;;;4991389;28;20827;-66
2023/10/10 05:27:41;;;;;;;15.20;7.13;;;16.20;99.90;;;;;;4996021;28;20791;-67
2023/10/10 05:30:25;;;;;;;17.93;6.60;;;16.10;99.90;;;;;;4998684;28;20421;-67
2023/10/10 05:33:03;;;;;;;14.03;6.70;;;16.10;99.90;;;;;;5001422;28;20475;-68
2023/10/10 05:35:34;;;;;;;14.43;6.73;;;16.10;99.90;;;;;;4987191;28;20670;-66
2023/10/10 05:38:01;;;;;;;18.77;6.90;;;16.10;99.90;;;;;;4995083;28;20412;-67
2023/10/10 05:40:27;;;;;;;18.60;7.70;;;16.10;99.90;;;;;;4991381;28;20939;-68
2023/10/10 05:42:55;;;;;;;16.07;7.60;;;16.10;99.90;;;;;;4994674;28;20432;-68
2023/10/10 05:45:22;;;;;;;14.17;7.53;;;16.10;99.90;;;;;;4991346;28;20780;-68
2023/10/10 05:47:48;;;;;;;14.03;6.60;;;16.10;99.90;;;;;;5002368;28;20938;-67
2023/10/10 05:50:14;;;;;;;12.50;7.33;;;16.10;99.90;;;;;;5003864;28;20291;-67
2023/10/10 05:52:40;;;;;;;10.90;6.43;;;16.10;99.90;;;;;;4991969;28;20241;-67
2023/10/10 05:55:07;;;;;;;20.47;7.37;;;16.10;99.90;;;;;;5006424;28;20408;-67
2023/10/10 05:57:36;;;;;;;13.80;6.90;;;16.10;99.90;;;;;;5006272;28;20912;-67
2023/10/10 06:00:05;;;;;;;15.13;7.10;;;16.10;99.90;;;;;;5001045;28;20416;-68
2023/10/10 06:02:31;;;;;;;16.17;7.10;;;16.00;99.90;;;;;;4990909;28;20460;-67
2023/10/10 06:04:57;;;;;;;12.20;6.70;;;16.00;99.90;;;;;;4996001;28;20421;-67
2023/10/10 06:07:23;;;;;;;18.27;8.10;;;16.00;99.90;;;;;;5011054;28;20854;-68
2023/10/10 06:09:51;;;;;;;14.30;6.70;;;16.10;99.90;;;;;;5000394;28;20478;-68
2023/10/10 06:12:19;;;;;;;13.10;6.10;;;16.10;99.90;;;;;;4996996;28;21288;-67
2023/10/10 06:14:46;;;;;;;15.83;6.80;;;16.10;99.90;;;;;;4992832;28;20585;-67
2023/10/10 06:17:13;;;;;;;14.90;7.67;;;16.20;99.90;;;;;;5002389;28;20447;-67
2023/10/10 06:19:38;;;;;;;12.27;6.73;;;16.10;99.90;;;;;;4998858;28;20412;-67
2023/10/10 06:22:08;;;;;;;14.43;7.47;;;16.20;99.90;;;;;;4999597;28;20462;-67
2023/10/10 06:24:34;;;;;;;17.60;7.17;;;16.20;99.90;;;;;;5002097;28;20247;-67
2023/10/10 06:27:00;;;;;;;14.13;6.83;;;16.20;99.90;;;;;;5002824;28;20444;-66
2023/10/10 06:29:29;;;;;;;15.23;6.77;;;16.20;99.90;;;;;;4993539;28;20532;-66
2023/10/10 06:31:56;;;;;;;18.77;8.27;;;16.30;99.90;;;;;;5000432;28;20605;-67
2023/10/10 06:34:23;;;;;;;14.03;7.30;;;16.30;99.90;;;;;;4999531;28;20405;-66
2023/10/10 06:36:50;;;;;;;16.00;7.37;;;16.40;99.90;;;;;;4996777;28;20496;-66
2023/10/10 06:41:46;;;;;;;11.33;7.00;;;16.40;99.90;;;;;;4991143;28;20524;-66
2023/10/10 06:44:17;;;;;;;22.80;7.77;;;16.50;99.90;;;;;;4997852;28;20200;-66
2023/10/10 06:46:47;;;;;;;16.60;8.17;;;16.50;99.90;;;;;;4991222;28;20421;-67
2023/10/10 06:49:13;;;;;;;21.87;8.10;;;16.50;99.90;;;;;;4996741;28;20489;-66
2023/10/10 06:51:41;;;;;;;17.93;8.20;;;16.50;99.90;;;;;;4993031;28;20461;-66
2023/10/10 06:54:19;;;;;;;11.93;7.33;;;16.50;99.90;;;;;;4994610;28;20886;-66
2023/10/10 06:56:53;;;;;;;14.50;7.50;;;16.50;99.90;;;;;;4991689;28;20428;-66
2023/10/10 06:59:26;;;;;;;17.70;8.47;;;16.60;99.90;;;;;;4994618;28;20507;-67
2023/10/10 07:02:39;;;;;;;17.60;8.13;;;16.60;99.90;;;;;;4993895;28;20420;-67
2023/10/10 07:04:54;;;;;;;16.37;8.10;;;16.70;99.90;;;;;;4994314;28;20528;-67
2023/10/10 07:07:20;;;;;;;15.70;7.13;;;16.70;99.90;;;;;;4993837;28;20444;-66
2023/10/10 07:09:46;;;;;;;16.97;7.40;;;16.70;99.90;;;;;;4995985;28;20442;-67
2023/10/10 07:12:14;;;;;;;17.87;9.53;;;16.80;99.90;;;;;;4993913;28;21056;-66
2023/10/10 07:14:46;;;;;;;20.90;11.70;;;16.80;99.90;;;;;;4994822;28;20554;-66
2023/10/10 07:17:12;;;;;;;20.27;11.43;;;16.90;99.90;;;;;;4999634;28;20423;-67
2023/10/10 07:22:33;;;;;;;15.03;8.07;;;17.10;99.90;;;;;;4993384;28;20444;-66
2023/10/10 07:25:31;;;;;;;18.63;7.80;;;17.20;99.90;;;;;;4996330;28;20873;-66
2023/10/10 07:27:57;;;;;;;19.47;10.00;;;17.20;99.90;;;;;;4995376;28;20540;-67
2023/10/10 07:30:33;;;;;;;18.77;8.70;;;17.20;99.90;;;;;;4994636;28;20441;-67
2023/10/10 07:33:01;;;;;;;13.93;7.70;;;17.30;99.90;;;;;;4995318;28;20832;-67
2023/10/10 07:35:28;;;;;;;21.30;8.20;;;17.30;99.90;;;;;;4996038;28;20424;-67
2023/10/10 07:37:58;;;;;;;12.67;6.77;;;17.40;99.90;;;;;;4990875;28;20462;-67
2023/10/10 07:40:31;;;;;;;12.97;6.80;;;17.50;99.90;;;;;;4997596;28;20459;-67
2023/10/10 07:42:59;;;;;;;12.47;6.87;;;17.60;99.90;;;;;;4990119;28;20547;-67
2023/10/10 07:45:34;;;;;;;12.90;7.17;;;17.80;99.90;;;;;;4992555;28;20439;-66
2023/10/10 07:50:36;;;;;;;17.77;8.27;;;18.10;99.90;;;;;;4990033;28;20506;-66
2023/10/10 07:53:12;;;;;;;20.03;7.47;;;18.00;99.90;;;;;;4995694;28;20467;-66
2023/10/10 07:56:00;;;;;;;16.63;6.70;;;18.00;99.90;;;;;;4993753;28;20396;-66
2023/10/10 07:58:49;;;;;;;17.50;7.17;;;18.00;99.90;;;;;;4998445;28;20841;-66
2023/10/10 08:01:18;;;;;;;12.20;7.23;;;18.10;99.90;;;;;;4998240;28;20457;-66
2023/10/10 08:03:45;;;;;;;15.90;6.60;;;18.00;99.90;;;;;;4990941;28;20448;-66
2023/10/10 08:06:21;;;;;;;21.47;7.13;;;18.10;99.90;;;;;;4996799;28;20959;-67
2023/10/10 08:11:37;;;;;;;22.77;9.87;;;18.20;99.90;;;;;;4995058;28;20587;-67
2023/10/10 08:14:06;;;;;;;15.30;7.90;;;18.10;99.90;;;;;;4991532;28;20543;-67
2023/10/10 08:16:36;;;;;;;16.73;7.27;;;18.20;99.90;;;;;;5008401;28;20460;-67
2023/10/10 08:19:06;;;;;;;17.63;9.30;;;18.30;99.90;;;;;;5000835;28;20796;-66
2023/10/10 08:21:39;;;;;;;14.10;7.13;;;18.30;99.90;;;;;;4996693;28;20417;-66
2023/10/10 08:24:12;;;;;;;11.40;6.53;;;18.50;99.90;;;;;;5002234;28;21039;-66
2023/10/10 08:26:40;;;;;;;15.30;6.70;;;18.60;99.90;;;;;;4994715;28;20404;-66
2023/10/10 08:29:10;;;;;;;14.67;7.20;;;18.60;99.90;;;;;;5001883;28;20416;-66
2023/10/10 08:31:37;;;;;;;15.23;7.50;;;18.80;99.90;;;;;;4995879;28;20464;-66
2023/10/10 08:34:04;;;;;;;18.50;6.87;;;18.80;99.90;;;;;;4998918;28;20439;-66
2023/10/10 08:36:30;;;;;;;19.40;8.20;;;18.90;99.90;;;;;;5001979;28;20507;-66
2023/10/10 08:38:57;;;;;;;15.20;8.00;;;18.90;99.90;;;;;;5006294;28;20518;-66
2023/10/10 08:41:28;;;;;;;15.23;6.40;;;19.00;99.90;;;;;;4994572;28;20169;-66
2023/10/10 08:44:06;;;;;;;16.03;7.27;;;19.10;99.90;;;;;;5002259;28;20509;-66
2023/10/10 08:46:40;;;;;;;13.13;7.03;;;19.20;99.90;;;;;;5004038;28;20506;-66
2023/10/10 08:49:07;;;;;;;10.67;6.33;;;19.20;99.90;;;;;;5002851;28;20458;-66
2023/10/10 08:51:34;;;;;;;11.17;6.37;;;19.30;99.90;;;;;;5001511;28;20464;-66
2023/10/10 08:54:09;;;;;;;13.93;6.23;;;19.40;99.90;;;;;;4993575;28;20429;-66
2023/10/10 08:57:02;;;;;;;13.53;6.70;;;19.50;99.90;;;;;;4996751;28;20806;-67
2023/10/10 08:59:29;;;;;;;17.03;6.90;;;19.60;99.90;;;;;;4995488;28;20432;-67
2023/10/10 09:02:07;;;;;;;9.60;5.97;;;19.60;99.90;;;;;;5000223;28;20428;-68
2023/10/10 09:04:33;;;;;;;15.33;8.20;;;19.80;99.90;;;;;;4999051;28;20471;-67
2023/10/10 09:07:00;;;;;;;16.40;6.90;;;19.70;99.90;;;;;;4994814;28;20526;-67
2023/10/10 09:09:33;;;;;;;14.63;6.43;;;19.80;99.90;;;;;;4997064;28;20440;-66
2023/10/10 09:12:02;;;;;;;13.17;6.37;;;19.80;99.90;;;;;;4994697;28;20895;-67
2023/10/10 09:14:41;;;;;;;16.37;7.00;;;19.90;99.90;;;;;;4996023;28;20434;-67
2023/10/10 09:17:11;;;;;;;10.57;6.07;;;20.00;99.90;;;;;;4997708;28;20823;-67
2023/10/10 09:19:47;;;;;;;13.60;6.57;;;20.20;99.90;;;;;;4997252;28;20427;-67
2023/10/10 09:22:28;;;;;;;17.77;6.77;;;20.30;99.90;;;;;;4998048;28;20439;-67
2023/10/10 09:24:59;;;;;;;14.97;6.63;;;20.40;99.90;;;;;;4996311;28;20424;-67
2023/10/10 09:27:28;;;;;;;17.87;7.57;;;20.50;99.90;;;;;;5003189;28;20409;-67
2023/10/10 09:29:56;;;;;;;14.63;6.87;;;20.50;99.90;;;;;;4995706;28;20433;-67
2023/10/10 09:32:36;;;;;;;17.30;6.67;;;20.50;99.90;;;;;;5000691;28;20840;-67
2023/10/10 09:35:05;;;;;;;14.50;7.00;;;20.60;99.90;;;;;;4991222;28;20521;-67
2023/10/10 09:37:35;;;;;;;12.53;6.60;;;20.70;99.90;;;;;;4996928;28;21153;-67
2023/10/10 09:40:07;;;;;;;16.73;6.97;;;20.70;99.90;;;;;;4995351;28;20823;-67
2023/10/10 09:48:33;;;;;;;11.77;6.77;;;20.70;99.90;;;;;;4993802;28;20419;-66
2023/10/10 09:51:30;;;;;;;12.33;5.90;;;20.70;99.90;;;;;;5001420;28;20419;-66
2023/10/10 09:54:15;;;;;;;14.03;7.07;;;20.70;99.90;;;;;;5002871;28;20746;-66
2023/10/10 09:56:47;;;;;;;10.67;6.10;;;20.70;99.90;;;;;;5004251;28;20415;-66
2023/10/10 09:59:20;;;;;;;20.83;9.10;;;20.80;99.90;;;;;;4997364;28;20393;-66
2023/10/10 10:01:59;;;;;;;13.37;5.33;;;20.90;99.90;;;;;;4996533;28;20412;-66
2023/10/10 10:04:36;;;;;;;12.97;6.60;;;21.10;99.90;;;;;;4997876;28;20439;-66
2023/10/10 10:07:35;;;;;;;12.63;5.87;;;21.20;99.90;;;;;;4994876;28;20492;-66
2023/10/10 10:10:18;;;;;;;11.83;5.97;;;21.20;99.90;;;;;;4985725;28;20440;-66
2023/10/10 10:13:13;;;;;;;18.03;6.30;;;21.30;99.90;;;;;;5000801;28;20494;-66
2023/10/10 10:15:57;;;;;;;16.83;5.70;;;21.40;99.90;;;;;;4998271;28;20982;-66
2023/10/10 10:18:29;;;;;;;18.60;7.10;;;21.40;99.90;;;;;;5001324;28;20527;-66
2023/10/10 10:21:19;;;;;;;11.53;5.83;;;21.50;99.90;;;;;;4998424;28;20929;-66
2023/10/10 10:23:55;;;;;;;12.50;6.13;;;21.60;99.90;;;;;;4994165;28;20451;-66
2023/10/10 10:26:32;;;;;;;18.80;6.50;;;21.70;99.90;;;;;;4999469;28;20801;-67
2023/10/10 10:29:08;;;;;;;15.30;6.60;;;21.80;99.90;;;;;;4991715;28;20439;-67
2023/10/10 10:31:37;;;;;;;14.87;6.80;;;22.00;99.90;;;;;;4993270;28;20926;-67
2023/10/10 10:34:16;;;;;;;10.40;5.90;;;22.10;99.90;;;;;;4994992;28;20432;-66
2023/10/10 10:36:54;;;;;;;12.70;6.63;;;22.20;99.90;;;;;;4993714;28;21008;-67
2023/10/10 10:39:24;;;;;;;13.43;6.70;;;22.20;99.90;;;;;;4998936;28;20411;-66
2023/10/10 10:41:53;;;;;;;18.97;7.00;;;22.30;99.90;;;;;;4998116;28;20535;-66
2023/10/10 10:44:55;;;;;;;9.27;5.30;;;22.50;99.90;;;;;;4998987;28;20524;-66
2023/10/10 10:47:37;;;;;;;17.60;6.60;;;22.50;99.90;;;;;;4990383;28;20999;-67
2023/10/10 10:50:04;;;;;;;13.30;6.10;;;22.60;99.90;;;;;;4994897;28;20421;-67
2023/10/10 10:52:48;;;;;;;13.60;6.97;;;22.60;99.90;;;;;;4999111;28;20494;-67
2023/10/10 10:55:25;;;;;;;15.27;6.63;;;22.70;99.90;;;;;;4993513;28;20432;-67
2023/10/10 10:58:05;;;;;;;20.57;5.53;;;22.80;99.90;;;;;;4997680;28;20458;-67
2023/10/10 11:03:43;;;;;;;13.77;6.00;;;23.00;99.90;;;;;;5003162;28;21021;-66
2023/10/10 11:06:09;;;;;;;9.60;5.50;;;23.00;99.90;;;;;;4999227;28;20418;-66
2023/10/10 11:11:24;;;;;;;12.23;5.23;;;23.20;99.90;;;;;;5002905;28;20403;-66
2023/10/10 11:14:04;;;;;;;12.10;6.30;;;23.40;99.90;;;;;;4994069;28;21018;-67
2023/10/10 11:16:37;;;;;;;17.13;6.60;;;23.50;99.90;;;;;;5003907;28;21033;-67
2023/10/10 11:19:35;;;;;;;13.63;6.70;;;23.60;99.90;;;;;;4999224;28;20404;-66
2023/10/10 11:22:05;;;;;;;17.13;6.47;;;23.70;99.90;;;;;;4992239;28;20814;-66
2023/10/10 11:24:34;;;;;;;19.47;6.63;;;23.90;99.90;;;;;;5004882;28;20412;-66
2023/10/10 11:29:28;;;;;;;10.03;6.57;;;24.00;99.90;;;;;;5004993;28;20435;-66
2023/10/10 11:32:07;;;;;;;12.07;6.07;;;23.90;99.90;;;;;;4995368;28;20472;-66
2023/10/10 11:34:42;;;;;;;16.90;5.47;;;24.00;99.90;;;;;;4997563;28;20177;-67
2023/10/10 11:37:32;;;;;;;10.47;6.30;;;24.10;99.90;;;;;;5001761;28;20515;-66
2023/10/10 11:42:56;;;;;;;17.03;7.47;;;24.40;99.90;;;;;;5001546;28;20547;-68
2023/10/10 11:45:26;;;;;;;17.83;6.17;;;24.50;99.90;;;;;;4993103;28;20415;-66
2023/10/10 11:47:53;;;;;;;11.83;6.60;;;24.60;99.90;;;;;;4998024;28;20891;-67
2023/10/10 11:50:29;;;;;;;11.30;6.33;;;24.80;99.90;;;;;;4995312;28;20443;-67
2023/10/10 11:53:00;;;;;;;12.07;5.50;;;25.00;99.90;;;;;;4996047;28;20895;-66
2023/10/10 11:55:27;;;;;;;9.70;6.30;;;25.20;99.90;;;;;;4995268;28;20882;-66
2023/10/10 11:58:06;;;;;;;16.20;6.00;;;25.30;99.90;;;;;;4996130;28;20487;-67
2023/10/10 12:00:44;;;;;;;9.80;5.90;;;25.50;99.90;;;;;;4993936;28;20443;-66
2023/10/10 12:03:33;;;;;;;24.10;6.60;;;25.70;99.90;;;;;;4995890;28;20427;-66
2023/10/10 12:06:00;;;;;;;13.33;6.10;;;25.90;99.90;;;;;;4991253;28;20477;-67
2023/10/10 12:08:26;;;;;;;11.03;6.13;;;25.90;99.90;;;;;;4997714;28;20447;-67
2023/10/10 12:10:55;;;;;;;10.73;6.40;;;26.10;99.90;;;;;;4999942;28;20643;-66
2023/10/10 12:16:01;;;;;;;13.37;5.60;;;26.80;98.20;;;;;;5000518;28;20416;-67
2023/10/10 12:18:31;;;;;;;14.03;5.83;;;27.40;97.10;;;;;;4999473;28;20426;-68
2023/10/10 12:20:58;;;;;;;14.43;6.73;;;27.90;95.40;;;;;;4995763;28;20420;-67
2023/10/10 12:23:24;;;;;;;15.60;6.43;;;28.30;94.20;;;;;;4990878;28;20467;-67
2023/10/10 12:25:54;;;;;;;11.50;6.93;;;28.50;92.00;;;;;;5000673;28;20428;-66
2023/10/10 12:28:20;;;;;;;9.70;6.00;;;29.00;91.70;;;;;;4993274;28;20444;-67
2023/10/10 12:30:46;;;;;;;10.50;6.43;;;29.00;90.10;;;;;;5000056;28;20416;-67
2023/10/10 12:33:16;;;;;;;10.00;5.83;;;29.60;87.50;;;;;;4997099;28;20480;-67
2023/10/10 12:35:46;;;;;;;15.67;6.80;;;30.10;85.20;;;;;;4989692;28;20217;-67
2023/10/10 12:38:15;;;;;;;14.37;6.30;;;30.30;82.00;;;;;;4997705;28;20890;-67
2023/10/10 12:40:43;;;;;;;14.20;6.10;;;30.40;80.10;;;;;;5001267;28;20436;-67
2023/10/10 12:43:12;;;;;;;8.57;6.10;;;30.20;79.30;;;;;;4996076;28;20447;-68
2023/10/10 12:45:38;;;;;;;9.20;5.70;;;30.40;79.60;;;;;;4998291;28;20415;-67
2023/10/10 12:48:13;;;;;;;10.33;6.27;;;30.80;78.80;;;;;;5000683;28;20411;-67
2023/10/10 12:50:39;;;;;;;10.10;5.93;;;30.90;78.10;;;;;;5002467;28;20306;-67
2023/10/10 12:53:08;;;;;;;15.87;6.47;;;31.10;77.40;;;;;;5001542;28;20446;-67
2023/10/10 12:55:36;;;;;;;9.50;6.07;;;31.20;75.00;;;;;;5000408;28;20458;-68
2023/10/10 12:58:14;;;;;;;16.13;7.00;;;31.20;73.00;;;;;;4999307;28;20470;-67
2023/10/10 13:00:42;;;;;;;13.27;6.47;;;30.80;71.30;;;;;;5004078;28;20805;-67
2023/10/10 13:03:07;;;;;;;14.60;6.50;;;30.50;72.20;;;;;;5000114;28;20945;-66
2023/10/10 13:05:33;;;;;;;10.93;6.20;;;30.40;72.50;;;;;;5002266;28;20455;-66
2023/10/10 13:07:59;;;;;;;13.63;7.53;;;30.10;70.80;;;;;;4994811;28;20213;-67
2023/10/10 13:10:32;;;;;;;13.87;5.93;;;30.10;71.30;;;;;;4999503;28;20435;-67
2023/10/10 13:12:58;;;;;;;12.00;7.27;;;30.40;71.10;;;;;;5002097;28;20221;-67
2023/10/10 13:15:46;;;;;;;9.63;6.03;;;30.30;68.60;;;;;;4997584;28;20424;-67
2023/10/10 13:18:22;;;;;;;12.17;6.87;;;30.40;68.60;;;;;;4996229;28;20188;-67
2023/10/10 13:20:51;;;;;;;10.53;6.70;;;30.70;67.30;;;;;;4998198;28;20440;-68
2023/10/10 13:23:18;;;;;;;16.70;6.60;;;30.80;68.50;;;;;;4998838;28;20440;-66
2023/10/10 13:25:44;;;;;;;17.50;6.57;;;31.00;67.90;;;;;;5002521;28;20770;-67
2023/10/10 13:28:12;;;;;;;10.47;6.47;;;31.20;68.40;;;;;;5000425;28;20929;-66
2023/10/10 13:30:47;;;;;;;14.77;6.40;;;31.20;65.70;;;;;;5002792;28;20429;-66
2023/10/10 13:33:14;;;;;;;9.83;5.47;;;31.10;65.50;;;;;;5000069;28;20613;-67
2023/10/10 13:35:39;;;;;;;12.87;6.20;;;30.80;66.50;;;;;;4991686;28;20927;-67
2023/10/10 13:38:07;;;;;;;15.93;7.67;;;30.60;64.60;;;;;;4999749;28;20394;-67
2023/10/10 13:40:48;;;;;;;10.90;6.73;;;30.60;63.80;;;;;;5002495;28;20556;-68
2023/10/10 13:43:17;;;;;;;14.03;7.23;;;30.30;63.80;;;;;;5003912;28;20467;-67
2023/10/10 13:45:48;;;;;;;11.07;5.50;;;29.90;65.40;;;;;;5004949;28;20428;-67
2023/10/10 13:48:14;;;;;;;15.03;6.80;;;30.00;65.30;;;;;;4999502;28;20420;-67
2023/10/10 13:50:44;;;;;;;14.73;6.50;;;30.10;65.50;;;;;;5000844;28;20966;-67
2023/10/10 13:53:14;;;;;;;15.07;6.20;;;30.00;65.30;;;;;;5002444;28;20571;-67
2023/10/10 13:55:44;;;;;;;12.00;6.23;;;30.00;65.20;;;;;;4998221;28;20487;-67
2023/10/10 13:58:14;;;;;;;10.93;6.20;;;29.80;64.30;;;;;;5000918;28;20399;-67
2023/10/10 14:00:42;;;;;;;14.23;6.10;;;29.60;64.60;;;;;;5004780;28;20435;-67
2023/10/10 14:03:08;;;;;;;11.90;6.10;;;29.40;65.50;;;;;;5001102;28;20448;-67
2023/10/10 14:05:36;;;;;;;10.20;6.27;;;29.30;64.70;;;;;;4995794;28;20421;-66
2023/10/10 14:08:03;;;;;;;10.53;6.50;;;29.20;64.90;;;;;;4997072;28;20557;-67
2023/10/10 14:10:38;;;;;;;9.67;5.87;;;29.10;64.90;;;;;;4999834;28;20427;-67
2023/10/10 14:13:25;;;;;;;10.17;5.90;;;29.10;64.90;;;;;;5002024;28;20498;-67
2023/10/10 14:16:01;;;;;;;11.07;6.30;;;28.90;64.30;;;;;;4995897;28;20427;-67
2023/10/10 14:18:29;;;;;;;14.80;6.57;;;28.60;65.00;;;;;;4999750;28;20424;-68
2023/10/10 14:20:56;;;;;;;9.67;6.80;;;28.40;65.30;;;;;;4994719;28;20460;-67
2023/10/10 14:23:24;;;;;;;14.43;6.20;;;28.20;65.70;;;;;;4994472;28;20520;-67
2023/10/10 14:25:51;;;;;;;17.10;6.63;;;28.00;66.80;;;;;;5000011;28;20432;-67
2023/10/10 14:28:18;;;;;;;12.20;6.60;;;28.00;67.10;;;;;;4998890;28;20432;-67
2023/10/10 14:30:50;;;;;;;12.27;6.40;;;28.10;67.30;;;;;;4995531;28;20420;-66
2023/10/10 14:33:17;;;;;;;7.93;6.20;;;28.10;66.50;;;;;;4998619;28;20469;-67
2023/10/10 14:35:44;;;;;;;11.60;7.10;;;28.10;66.70;;;;;;4990259;28;20967;-66
2023/10/10 14:38:14;;;;;;;9.40;6.60;;;28.10;67.30;;;;;;4998556;28;20504;-66
2023/10/10 14:40:41;;;;;;;9.60;5.50;;;28.10;67.00;;;;;;4996922;28;20516;-67
2023/10/10 14:43:07;;;;;;;9.90;6.03;;;28.10;67.10;;;;;;4995931;28;20901;-67
2023/10/10 14:45:34;;;;;;;11.17;6.17;;;27.90;67.70;;;;;;4998182;28;20448;-67
2023/10/10 14:48:04;;;;;;;10.30;6.00;;;27.90;67.90;;;;;;4998803;28;20428;-67
2023/10/10 14:50:36;;;;;;;11.60;6.30;;;27.80;67.60;;;;;;4996563;28;21006;-67
2023/10/10 14:53:08;;;;;;;17.03;7.80;;;27.60;68.40;;;;;;5000232;28;20850;-67
2023/10/10 14:55:40;;;;;;;18.70;7.80;;;27.50;68.20;;;;;;4997998;28;20922;-67
2023/10/10 14:58:09;;;;;;;12.13;6.80;;;27.40;68.80;;;;;;5002204;28;20388;-66
2023/10/10 15:00:40;;;;;;;8.37;6.10;;;27.40;69.50;;;;;;4994522;28;20448;-66
2023/10/10 15:03:12;;;;;;;8.20;6.20;;;27.30;70.00;;;;;;5002704;28;20443;-66
2023/10/10 15:05:50;;;;;;;12.77;6.17;;;27.30;69.90;;;;;;4996541;28;20408;-66
2023/10/10 15:08:20;;;;;;;14.10;6.47;;;27.30;70.50;;;;;;4996387;28;20534;-66
2023/10/10 15:10:53;;;;;;;10.10;7.70;;;27.30;70.00;;;;;;4996437;28;20779;-67
2023/10/10 15:13:19;;;;;;;12.13;6.47;;;27.30;70.40;;;;;;4998062;28;20570;-67
2023/10/10 15:15:45;;;;;;;10.97;6.50;;;27.10;71.10;;;;;;4995240;28;20523;-67
2023/10/10 15:18:18;;;;;;;10.53;6.47;;;27.00;70.60;;;;;;4995339;28;20174;-67
2023/10/10 15:20:48;;;;;;;9.67;5.70;;;26.90;71.10;;;;;;4997000;28;20523;-66
2023/10/10 15:23:19;;;;;;;12.80;6.57;;;26.90;71.50;;;;;;4996257;28;20444;-66
2023/10/10 15:25:55;;;;;;;8.73;6.00;;;26.80;71.80;;;;;;4997062;28;20427;-66
2023/10/10 15:28:23;;;;;;;10.47;6.40;;;26.60;70.90;;;;;;4995522;28;20555;-67
2023/10/10 15:30:49;;;;;;;13.50;6.93;;;26.60;71.50;;;;;;4999145;28;20424;-66
2023/10/10 15:33:18;;;;;;;13.20;6.93;;;26.40;71.80;;;;;;4998079;28;20487;-67